David M Fleming — WDE3731 — position and weather

sailwx.info

Track history (hours):
 
Tides and Currents Weather Stations Pressure Air Temp Water Temp Dewpoint Dewpoint Depression Visibility Wind Speed Wind Dir Waves Ship Positions

David M Fleming

Owner: ACL Transportation Services LLC, Jeffersonville, IN. More information available from US FCC via Universal Licensing System and Coast Guard Vessel Documentation Center.

Last reported at 2018-Jan-11 06:22 UTC. Time now 2018-Jan-23 19:40 UTC.
Position N 29°44' W 095°09'.
Warning: this ship's position is 12 days out of date.

Length 16 m; draft 2.5 m.

Type: Tug. MMSI: 367343420.

Date/timePositionNaut miles runAvg speedWind from/ knotsBaromVisibWave heightAir tempDewpointWater temp
2018-Jan-11 06:22N 29°44' W 095°09'3 0.1
2018-Jan-09 19:00N 29°46' W 095°06'0 0.0
2018-Jan-09 18:27N 29°46' W 095°06'1 0.6
2018-Jan-09 17:01N 29°46' W 095°07'0 0.4
2018-Jan-09 17:00N 29°46' W 095°07'0 0.3
2018-Jan-09 16:30N 29°46' W 095°07'1 2.7
2018-Jan-09 16:00N 29°46' W 095°05'1 1.1
2018-Jan-09 14:51N 29°46' W 095°07'1 2.9
2018-Jan-09 14:28N 29°46' W 095°05'1 0.2
2018-Jan-09 10:23N 29°46' W 095°06'2 0.8
2018-Jan-09 07:31N 29°44' W 095°08'0 7.6
2018-Jan-09 07:30N 29°44' W 095°08'4 6.7
2018-Jan-09 06:57N 29°44' W 095°13'2 2.6
2018-Jan-09 06:08N 29°43' W 095°15'1 6.0
2018-Jan-09 05:59N 29°43' W 095°14'4 7.4
2018-Jan-09 05:26N 29°44' W 095°09'  
2018-Jan-06 04:08N 29°44' W 095°08'1 4.7
2018-Jan-06 04:00N 29°44' W 095°09'3 4.3
2018-Jan-06 03:20N 29°44' W 095°12'2 4.2
2018-Jan-06 02:58N 29°44' W 095°14'2 3.7
2018-Jan-06 02:28N 29°44' W 095°16'1 2.1
2018-Jan-06 02:00N 29°44' W 095°17'2 4.5
2018-Jan-06 01:27N 29°43' W 095°14'7 0.2
2018-Jan-04 08:58N 29°46' W 095°06'0 0.0
2018-Jan-04 06:21N 29°46' W 095°06'6 0.3
2018-Jan-03 05:32N 29°43' W 095°13'2 5.0
2018-Jan-03 05:06N 29°44' W 095°16'1 5.1
2018-Jan-03 05:00N 29°43' W 095°16'1 1.0
2018-Jan-03 04:10N 29°43' W 095°17'0 0.1
2018-Jan-03 03:56N 29°43' W 095°17'1 2.1
2018-Jan-03 03:30N 29°43' W 095°16'2 4.4
2018-Jan-03 02:58N 29°43' W 095°13'4 5.4
2018-Jan-03 02:10N 29°44' W 095°08'  
Track history (hours):
 
Tides and Currents Weather Stations Pressure Air Temp Water Temp Dewpoint Dewpoint Depression Visibility Wind Speed Wind Dir Waves Ship Positions

David M Fleming

Owner: ACL Transportation Services LLC, Jeffersonville, IN. More information available from US FCC via Universal Licensing System and Coast Guard Vessel Documentation Center.

Last reported at 2018-Jan-11 06:22 UTC. Time now 2018-Jan-23 19:40 UTC.
Position N 29°44' W 095°09'.
Warning: this ship's position is 12 days out of date.

Length 16 m; draft 2.5 m.

Type: Tug. MMSI: 367343420.

Date/timePositionNaut miles runAvg speedWind from/ knotsBaromVisibWave heightAir tempDewpointWater temp
2018-Jan-11 06:22N 29°44' W 095°09'3 0.1
2018-Jan-09 19:00N 29°46' W 095°06'0 0.0
2018-Jan-09 18:27N 29°46' W 095°06'1 0.6
2018-Jan-09 17:01N 29°46' W 095°07'0 0.4
2018-Jan-09 17:00N 29°46' W 095°07'0 0.3
2018-Jan-09 16:30N 29°46' W 095°07'1 2.7
2018-Jan-09 16:00N 29°46' W 095°05'1 1.1
2018-Jan-09 14:51N 29°46' W 095°07'1 2.9
2018-Jan-09 14:28N 29°46' W 095°05'1 0.2
2018-Jan-09 10:23N 29°46' W 095°06'2 0.8
2018-Jan-09 07:31N 29°44' W 095°08'0 7.6
2018-Jan-09 07:30N 29°44' W 095°08'4 6.7
2018-Jan-09 06:57N 29°44' W 095°13'2 2.6
2018-Jan-09 06:08N 29°43' W 095°15'1 6.0
2018-Jan-09 05:59N 29°43' W 095°14'4 7.4
2018-Jan-09 05:26N 29°44' W 095°09'  
2018-Jan-06 04:08N 29°44' W 095°08'1 4.7
2018-Jan-06 04:00N 29°44' W 095°09'3 4.3
2018-Jan-06 03:20N 29°44' W 095°12'2 4.2
2018-Jan-06 02:58N 29°44' W 095°14'2 3.7
2018-Jan-06 02:28N 29°44' W 095°16'1 2.1
2018-Jan-06 02:00N 29°44' W 095°17'2 4.5
2018-Jan-06 01:27N 29°43' W 095°14'7 0.2
2018-Jan-04 08:58N 29°46' W 095°06'0 0.0
2018-Jan-04 06:21N 29°46' W 095°06'6 0.3
2018-Jan-03 05:32N 29°43' W 095°13'2 5.0
2018-Jan-03 05:06N 29°44' W 095°16'1 5.1
2018-Jan-03 05:00N 29°43' W 095°16'1 1.0
2018-Jan-03 04:10N 29°43' W 095°17'0 0.1
2018-Jan-03 03:56N 29°43' W 095°17'1 2.1
2018-Jan-03 03:30N 29°43' W 095°16'2 4.4
2018-Jan-03 02:58N 29°43' W 095°13'4 5.4
2018-Jan-03 02:10N 29°44' W 095°08'  

Dump ship's entire track history